sensor_id;sensor_type;location;lat;lon;timestamp;P1;durP1;ratioP1;P2;durP2;ratioP2
39874;SDS011;25547;52.530;13.194;2023-03-04T00:01:50;35.78;;;14.20;;
39874;SDS011;25547;52.530;13.194;2023-03-04T00:04:18;37.53;;;14.50;;
39874;SDS011;25547;52.530;13.194;2023-03-04T00:06:43;37.15;;;14.23;;
39874;SDS011;25547;52.530;13.194;2023-03-04T00:09:09;36.17;;;14.10;;
39874;SDS011;25547;52.530;13.194;2023-03-04T00:11:34;40.38;;;17.08;;
39874;SDS011;25547;52.530;13.194;2023-03-04T00:14:00;32.63;;;14.00;;
39874;SDS011;25547;52.530;13.194;2023-03-04T00:16:26;38.35;;;14.73;;
39874;SDS011;25547;52.530;13.194;2023-03-04T00:18:54;36.80;;;15.55;;
39874;SDS011;25547;52.530;13.194;2023-03-04T00:21:22;38.75;;;14.40;;
39874;SDS011;25547;52.530;13.194;2023-03-04T00:23:50;36.25;;;14.75;;
39874;SDS011;25547;52.530;13.194;2023-03-04T00:26:19;30.40;;;13.65;;
39874;SDS011;25547;52.530;13.194;2023-03-04T00:28:47;34.00;;;14.65;;
39874;SDS011;25547;52.530;13.194;2023-03-04T00:31:13;40.20;;;16.08;;
39874;SDS011;25547;52.530;13.194;2023-03-04T00:33:43;37.63;;;12.98;;
39874;SDS011;25547;52.530;13.194;2023-03-04T00:36:09;32.95;;;14.23;;
39874;SDS011;25547;52.530;13.194;2023-03-04T00:38:35;33.45;;;13.38;;
39874;SDS011;25547;52.530;13.194;2023-03-04T00:41:03;36.20;;;13.65;;
39874;SDS011;25547;52.530;13.194;2023-03-04T00:43:29;33.65;;;12.95;;
39874;SDS011;25547;52.530;13.194;2023-03-04T00:45:58;35.03;;;12.23;;
39874;SDS011;25547;52.530;13.194;2023-03-04T00:48:24;29.70;;;11.90;;
39874;SDS011;25547;52.530;13.194;2023-03-04T00:50:52;38.97;;;14.65;;
39874;SDS011;25547;52.530;13.194;2023-03-04T00:53:20;31.75;;;12.57;;
39874;SDS011;25547;52.530;13.194;2023-03-04T00:55:47;27.77;;;10.57;;
39874;SDS011;25547;52.530;13.194;2023-03-04T00:58:15;31.77;;;12.20;;
39874;SDS011;25547;52.530;13.194;2023-03-04T01:00:41;35.85;;;11.38;;
39874;SDS011;25547;52.530;13.194;2023-03-04T01:03:07;37.50;;;13.40;;
39874;SDS011;25547;52.530;13.194;2023-03-04T01:05:34;32.42;;;9.25;;
39874;SDS011;25547;52.530;13.194;2023-03-04T01:08:03;31.98;;;10.32;;
39874;SDS011;25547;52.530;13.194;2023-03-04T01:10:31;22.85;;;8.25;;
39874;SDS011;25547;52.530;13.194;2023-03-04T01:12:58;24.00;;;9.38;;
39874;SDS011;25547;52.530;13.194;2023-03-04T01:15:27;28.30;;;7.93;;
39874;SDS011;25547;52.530;13.194;2023-03-04T01:17:53;27.10;;;6.68;;
39874;SDS011;25547;52.530;13.194;2023-03-04T01:20:19;26.83;;;7.45;;
39874;SDS011;25547;52.530;13.194;2023-03-04T01:22:44;28.40;;;8.50;;
39874;SDS011;25547;52.530;13.194;2023-03-04T01:25:10;25.77;;;6.15;;
39874;SDS011;25547;52.530;13.194;2023-03-04T01:27:38;21.88;;;5.85;;
39874;SDS011;25547;52.530;13.194;2023-03-04T01:30:03;18.90;;;6.53;;
39874;SDS011;25547;52.530;13.194;2023-03-04T01:32:30;27.85;;;8.40;;
39874;SDS011;25547;52.530;13.194;2023-03-04T01:34:56;21.73;;;5.57;;
39874;SDS011;25547;52.530;13.194;2023-03-04T01:37:21;20.25;;;5.15;;
39874;SDS011;25547;52.530;13.194;2023-03-04T01:39:47;20.10;;;5.82;;
39874;SDS011;25547;52.530;13.194;2023-03-04T01:42:21;21.60;;;6.32;;
39874;SDS011;25547;52.530;13.194;2023-03-04T01:44:58;26.60;;;4.60;;
39874;SDS011;25547;52.530;13.194;2023-03-04T01:47:26;20.55;;;5.03;;
39874;SDS011;25547;52.530;13.194;2023-03-04T01:49:56;21.15;;;4.20;;
39874;SDS011;25547;52.530;13.194;2023-03-04T01:52:25;17.35;;;5.15;;
39874;SDS011;25547;52.530;13.194;2023-03-04T01:54:51;24.48;;;5.47;;
39874;SDS011;25547;52.530;13.194;2023-03-04T01:57:20;21.50;;;4.28;;
39874;SDS011;25547;52.530;13.194;2023-03-04T02:00:09;25.15;;;4.93;;
39874;SDS011;25547;52.530;13.194;2023-03-04T02:02:43;25.05;;;5.47;;
39874;SDS011;25547;52.530;13.194;2023-03-04T02:05:11;24.25;;;5.65;;
39874;SDS011;25547;52.530;13.194;2023-03-04T02:07:38;22.33;;;4.97;;
39874;SDS011;25547;52.530;13.194;2023-03-04T02:10:04;23.35;;;4.85;;
39874;SDS011;25547;52.530;13.194;2023-03-04T02:12:33;15.02;;;4.20;;
39874;SDS011;25547;52.530;13.194;2023-03-04T02:15:03;12.60;;;3.22;;
39874;SDS011;25547;52.530;13.194;2023-03-04T02:22:48;17.38;;;3.58;;
39874;SDS011;25547;52.530;13.194;2023-03-04T02:25:30;16.13;;;3.35;;
39874;SDS011;25547;52.530;13.194;2023-03-04T02:28:06;20.27;;;3.55;;
39874;SDS011;25547;52.530;13.194;2023-03-04T02:30:31;20.42;;;3.63;;
39874;SDS011;25547;52.530;13.194;2023-03-04T02:32:59;16.42;;;3.00;;
39874;SDS011;25547;52.530;13.194;2023-03-04T02:35:26;18.70;;;3.80;;
39874;SDS011;25547;52.530;13.194;2023-03-04T02:37:52;17.60;;;4.30;;
39874;SDS011;25547;52.530;13.194;2023-03-04T02:40:25;13.88;;;3.10;;
39874;SDS011;25547;52.530;13.194;2023-03-04T02:42:56;15.95;;;3.08;;
39874;SDS011;25547;52.530;13.194;2023-03-04T02:45:38;13.43;;;2.80;;
39874;SDS011;25547;52.530;13.194;2023-03-04T02:48:07;19.33;;;3.20;;
39874;SDS011;25547;52.530;13.194;2023-03-04T02:50:38;12.32;;;2.80;;
39874;SDS011;25547;52.530;13.194;2023-03-04T02:53:06;14.50;;;3.20;;
39874;SDS011;25547;52.530;13.194;2023-03-04T02:55:32;14.57;;;2.03;;
39874;SDS011;25547;52.530;13.194;2023-03-04T02:57:58;16.80;;;3.50;;
39874;SDS011;25547;52.530;13.194;2023-03-04T03:00:24;26.50;;;3.88;;
39874;SDS011;25547;52.530;13.194;2023-03-04T03:02:50;13.73;;;2.95;;
39874;SDS011;25547;52.530;13.194;2023-03-04T03:05:20;13.88;;;3.35;;
39874;SDS011;25547;52.530;13.194;2023-03-04T03:07:50;13.57;;;2.33;;
39874;SDS011;25547;52.530;13.194;2023-03-04T03:10:15;13.98;;;3.88;;
39874;SDS011;25547;52.530;13.194;2023-03-04T03:12:41;14.27;;;2.40;;
39874;SDS011;25547;52.530;13.194;2023-03-04T03:15:07;12.52;;;2.22;;
39874;SDS011;25547;52.530;13.194;2023-03-04T03:17:36;18.52;;;3.22;;
39874;SDS011;25547;52.530;13.194;2023-03-04T03:20:03;23.67;;;3.47;;
39874;SDS011;25547;52.530;13.194;2023-03-04T03:22:32;12.95;;;2.70;;
39874;SDS011;25547;52.530;13.194;2023-03-04T03:25:00;10.10;;;2.10;;
39874;SDS011;25547;52.530;13.194;2023-03-04T03:27:25;11.18;;;2.17;;
39874;SDS011;25547;52.530;13.194;2023-03-04T03:29:53;19.08;;;2.88;;
39874;SDS011;25547;52.530;13.194;2023-03-04T03:32:26;13.18;;;2.40;;
39874;SDS011;25547;52.530;13.194;2023-03-04T03:34:52;13.98;;;2.58;;
39874;SDS011;25547;52.530;13.194;2023-03-04T03:37:17;12.85;;;2.60;;
39874;SDS011;25547;52.530;13.194;2023-03-04T03:39:43;14.55;;;2.08;;
39874;SDS011;25547;52.530;13.194;2023-03-04T03:42:11;14.00;;;1.98;;
39874;SDS011;25547;52.530;13.194;2023-03-04T03:44:39;18.27;;;2.20;;
39874;SDS011;25547;52.530;13.194;2023-03-04T03:47:05;8.75;;;1.83;;
39874;SDS011;25547;52.530;13.194;2023-03-04T03:49:30;12.98;;;1.60;;
39874;SDS011;25547;52.530;13.194;2023-03-04T03:51:56;10.93;;;1.80;;
39874;SDS011;25547;52.530;13.194;2023-03-04T03:54:22;14.15;;;1.83;;
39874;SDS011;25547;52.530;13.194;2023-03-04T03:56:48;16.02;;;2.35;;
39874;SDS011;25547;52.530;13.194;2023-03-04T03:59:13;19.33;;;2.15;;
39874;SDS011;25547;52.530;13.194;2023-03-04T04:01:41;11.45;;;2.35;;
39874;SDS011;25547;52.530;13.194;2023-03-04T04:04:07;16.70;;;2.33;;
39874;SDS011;25547;52.530;13.194;2023-03-04T04:06:32;14.60;;;2.35;;
39874;SDS011;25547;52.530;13.194;2023-03-04T04:08:58;17.85;;;2.13;;
39874;SDS011;25547;52.530;13.194;2023-03-04T04:11:24;12.00;;;2.10;;
39874;SDS011;25547;52.530;13.194;2023-03-04T04:13:49;11.60;;;1.40;;
39874;SDS011;25547;52.530;13.194;2023-03-04T04:16:15;10.60;;;2.60;;
39874;SDS011;25547;52.530;13.194;2023-03-04T04:18:43;11.38;;;1.30;;
39874;SDS011;25547;52.530;13.194;2023-03-04T04:21:09;12.68;;;1.60;;
39874;SDS011;25547;52.530;13.194;2023-03-04T04:23:35;22.08;;;2.92;;
39874;SDS011;25547;52.530;13.194;2023-03-04T04:26:00;11.05;;;2.10;;
39874;SDS011;25547;52.530;13.194;2023-03-04T04:28:28;14.02;;;2.53;;
39874;SDS011;25547;52.530;13.194;2023-03-04T04:30:54;11.45;;;1.90;;
39874;SDS011;25547;52.530;13.194;2023-03-04T04:33:22;14.45;;;1.55;;
39874;SDS011;25547;52.530;13.194;2023-03-04T04:35:48;13.63;;;2.38;;
39874;SDS011;25547;52.530;13.194;2023-03-04T04:38:15;14.50;;;1.83;;
39874;SDS011;25547;52.530;13.194;2023-03-04T04:40:41;6.15;;;1.00;;
39874;SDS011;25547;52.530;13.194;2023-03-04T04:43:07;15.38;;;2.78;;
39874;SDS011;25547;52.530;13.194;2023-03-04T04:45:38;8.18;;;1.10;;
39874;SDS011;25547;52.530;13.194;2023-03-04T04:48:04;13.32;;;1.13;;
39874;SDS011;25547;52.530;13.194;2023-03-04T04:50:29;12.63;;;2.70;;
39874;SDS011;25547;52.530;13.194;2023-03-04T04:52:55;13.75;;;1.70;;
39874;SDS011;25547;52.530;13.194;2023-03-04T04:55:21;12.55;;;2.42;;
39874;SDS011;25547;52.530;13.194;2023-03-04T04:57:47;8.77;;;1.80;;
39874;SDS011;25547;52.530;13.194;2023-03-04T05:00:13;7.30;;;0.80;;
39874;SDS011;25547;52.530;13.194;2023-03-04T05:02:39;10.55;;;0.88;;
39874;SDS011;25547;52.530;13.194;2023-03-04T05:05:05;13.18;;;1.52;;
39874;SDS011;25547;52.530;13.194;2023-03-04T05:07:34;14.55;;;1.27;;
39874;SDS011;25547;52.530;13.194;2023-03-04T05:10:00;10.48;;;1.48;;
39874;SDS011;25547;52.530;13.194;2023-03-04T05:12:26;13.13;;;1.65;;
39874;SDS011;25547;52.530;13.194;2023-03-04T05:14:52;10.68;;;0.93;;
39874;SDS011;25547;52.530;13.194;2023-03-04T05:17:18;8.85;;;1.02;;
39874;SDS011;25547;52.530;13.194;2023-03-04T05:19:44;13.30;;;1.55;;
39874;SDS011;25547;52.530;13.194;2023-03-04T05:22:09;12.02;;;1.05;;
39874;SDS011;25547;52.530;13.194;2023-03-04T05:24:35;10.77;;;0.77;;
39874;SDS011;25547;52.530;13.194;2023-03-04T05:27:01;16.77;;;1.65;;
39874;SDS011;25547;52.530;13.194;2023-03-04T05:29:27;7.90;;;1.02;;
39874;SDS011;25547;52.530;13.194;2023-03-04T05:31:53;17.17;;;2.25;;
39874;SDS011;25547;52.530;13.194;2023-03-04T05:34:18;17.85;;;1.17;;
39874;SDS011;25547;52.530;13.194;2023-03-04T05:36:44;3.55;;;0.60;;
39874;SDS011;25547;52.530;13.194;2023-03-04T05:39:10;9.80;;;1.70;;
39874;SDS011;25547;52.530;13.194;2023-03-04T05:41:36;8.02;;;1.23;;
39874;SDS011;25547;52.530;13.194;2023-03-04T05:44:02;5.40;;;1.20;;
39874;SDS011;25547;52.530;13.194;2023-03-04T05:46:28;8.40;;;0.50;;
39874;SDS011;25547;52.530;13.194;2023-03-04T05:48:54;10.68;;;1.15;;
39874;SDS011;25547;52.530;13.194;2023-03-04T05:51:20;10.48;;;1.30;;
39874;SDS011;25547;52.530;13.194;2023-03-04T05:53:46;12.98;;;1.65;;
39874;SDS011;25547;52.530;13.194;2023-03-04T05:56:13;6.10;;;0.63;;
39874;SDS011;25547;52.530;13.194;2023-03-04T05:58:43;10.50;;;0.88;;
39874;SDS011;25547;52.530;13.194;2023-03-04T06:03:40;4.82;;;0.55;;
39874;SDS011;25547;52.530;13.194;2023-03-04T06:06:07;10.50;;;0.98;;
39874;SDS011;25547;52.530;13.194;2023-03-04T06:08:33;8.82;;;0.75;;
39874;SDS011;25547;52.530;13.194;2023-03-04T06:11:01;10.65;;;0.90;;
39874;SDS011;25547;52.530;13.194;2023-03-04T06:13:28;8.70;;;0.45;;
39874;SDS011;25547;52.530;13.194;2023-03-04T06:15:55;11.13;;;0.63;;
39874;SDS011;25547;52.530;13.194;2023-03-04T06:18:22;7.35;;;0.65;;
39874;SDS011;25547;52.530;13.194;2023-03-04T06:20:58;13.45;;;0.80;;
39874;SDS011;25547;52.530;13.194;2023-03-04T06:23:27;12.55;;;0.63;;
39874;SDS011;25547;52.530;13.194;2023-03-04T06:25:54;7.25;;;0.68;;
39874;SDS011;25547;52.530;13.194;2023-03-04T06:28:21;8.02;;;0.40;;
39874;SDS011;25547;52.530;13.194;2023-03-04T06:30:47;10.30;;;0.68;;
39874;SDS011;25547;52.530;13.194;2023-03-04T06:33:18;10.80;;;1.10;;
39874;SDS011;25547;52.530;13.194;2023-03-04T06:35:44;4.90;;;0.43;;
39874;SDS011;25547;52.530;13.194;2023-03-04T06:38:09;8.52;;;0.95;;
39874;SDS011;25547;52.530;13.194;2023-03-04T06:40:35;3.70;;;0.40;;
39874;SDS011;25547;52.530;13.194;2023-03-04T06:43:03;7.13;;;0.80;;
39874;SDS011;25547;52.530;13.194;2023-03-04T06:45:29;10.88;;;1.10;;
39874;SDS011;25547;52.530;13.194;2023-03-04T06:47:55;7.53;;;0.65;;
39874;SDS011;25547;52.530;13.194;2023-03-04T06:50:20;6.60;;;0.52;;
39874;SDS011;25547;52.530;13.194;2023-03-04T06:52:51;7.20;;;0.68;;
39874;SDS011;25547;52.530;13.194;2023-03-04T06:55:16;5.72;;;0.70;;
39874;SDS011;25547;52.530;13.194;2023-03-04T06:57:44;9.60;;;0.95;;
39874;SDS011;25547;52.530;13.194;2023-03-04T07:00:10;4.45;;;0.20;;
39874;SDS011;25547;52.530;13.194;2023-03-04T07:02:39;5.40;;;0.30;;
39874;SDS011;25547;52.530;13.194;2023-03-04T07:05:05;6.22;;;1.38;;
39874;SDS011;25547;52.530;13.194;2023-03-04T07:07:31;3.35;;;0.52;;
39874;SDS011;25547;52.530;13.194;2023-03-04T07:09:57;12.90;;;3.03;;
39874;SDS011;25547;52.530;13.194;2023-03-04T07:12:25;8.00;;;1.40;;
39874;SDS011;25547;52.530;13.194;2023-03-04T07:14:54;7.55;;;0.40;;
39874;SDS011;25547;52.530;13.194;2023-03-04T07:17:19;8.60;;;0.60;;
39874;SDS011;25547;52.530;13.194;2023-03-04T07:19:45;7.85;;;0.50;;
39874;SDS011;25547;52.530;13.194;2023-03-04T07:22:11;9.18;;;1.42;;
39874;SDS011;25547;52.530;13.194;2023-03-04T07:24:37;4.43;;;0.50;;
39874;SDS011;25547;52.530;13.194;2023-03-04T07:27:02;13.23;;;1.20;;
39874;SDS011;25547;52.530;13.194;2023-03-04T07:29:28;5.47;;;0.40;;
39874;SDS011;25547;52.530;13.194;2023-03-04T07:31:54;5.20;;;0.50;;
39874;SDS011;25547;52.530;13.194;2023-03-04T07:34:19;9.57;;;0.68;;
39874;SDS011;25547;52.530;13.194;2023-03-04T07:36:45;2.83;;;0.30;;
39874;SDS011;25547;52.530;13.194;2023-03-04T07:39:11;3.55;;;0.82;;
39874;SDS011;25547;52.530;13.194;2023-03-04T07:41:37;2.63;;;0.68;;
39874;SDS011;25547;52.530;13.194;2023-03-04T07:44:04;3.58;;;0.28;;
39874;SDS011;25547;52.530;13.194;2023-03-04T07:46:31;7.55;;;0.57;;
39874;SDS011;25547;52.530;13.194;2023-03-04T07:48:57;6.43;;;0.38;;
39874;SDS011;25547;52.530;13.194;2023-03-04T07:51:24;5.55;;;0.50;;
39874;SDS011;25547;52.530;13.194;2023-03-04T07:53:55;2.88;;;0.38;;
39874;SDS011;25547;52.530;13.194;2023-03-04T07:56:23;3.90;;;0.38;;
39874;SDS011;25547;52.530;13.194;2023-03-04T07:58:53;3.92;;;0.25;;
39874;SDS011;25547;52.530;13.194;2023-03-04T08:01:24;2.85;;;0.80;;
39874;SDS011;25547;52.530;13.194;2023-03-04T08:03:53;5.85;;;0.80;;
39874;SDS011;25547;52.530;13.194;2023-03-04T08:06:19;7.95;;;1.55;;
39874;SDS011;25547;52.530;13.194;2023-03-04T08:08:48;12.25;;;0.68;;
39874;SDS011;25547;52.530;13.194;2023-03-04T08:11:18;6.55;;;0.50;;
39874;SDS011;25547;52.530;13.194;2023-03-04T08:16:16;4.95;;;1.15;;
39874;SDS011;25547;52.530;13.194;2023-03-04T08:18:49;7.60;;;0.43;;
39874;SDS011;25547;52.530;13.194;2023-03-04T08:21:19;12.95;;;1.45;;
39874;SDS011;25547;52.530;13.194;2023-03-04T08:23:49;5.78;;;0.32;;
39874;SDS011;25547;52.530;13.194;2023-03-04T08:26:19;6.30;;;0.30;;
39874;SDS011;25547;52.530;13.194;2023-03-04T08:28:53;3.67;;;0.20;;
39874;SDS011;25547;52.530;13.194;2023-03-04T08:31:20;7.30;;;0.20;;
39874;SDS011;25547;52.530;13.194;2023-03-04T08:33:46;4.05;;;0.20;;
39874;SDS011;25547;52.530;13.194;2023-03-04T08:36:13;6.22;;;0.43;;
39874;SDS011;25547;52.530;13.194;2023-03-04T08:38:39;3.03;;;0.20;;
39874;SDS011;25547;52.530;13.194;2023-03-04T08:41:07;5.68;;;0.22;;
39874;SDS011;25547;52.530;13.194;2023-03-04T08:43:33;7.18;;;0.20;;
39874;SDS011;25547;52.530;13.194;2023-03-04T08:45:59;6.90;;;0.43;;
39874;SDS011;25547;52.530;13.194;2023-03-04T08:48:25;1.95;;;0.20;;
39874;SDS011;25547;52.530;13.194;2023-03-04T08:50:53;8.95;;;1.30;;
39874;SDS011;25547;52.530;13.194;2023-03-04T08:53:19;4.70;;;0.30;;
39874;SDS011;25547;52.530;13.194;2023-03-04T08:55:44;7.32;;;0.57;;
39874;SDS011;25547;52.530;13.194;2023-03-04T08:58:13;6.85;;;0.20;;
39874;SDS011;25547;52.530;13.194;2023-03-04T09:00:40;4.95;;;0.22;;
39874;SDS011;25547;52.530;13.194;2023-03-04T09:03:08;9.95;;;1.27;;
39874;SDS011;25547;52.530;13.194;2023-03-04T09:05:38;4.60;;;0.22;;
39874;SDS011;25547;52.530;13.194;2023-03-04T09:08:06;5.50;;;0.30;;
39874;SDS011;25547;52.530;13.194;2023-03-04T09:10:32;6.22;;;0.32;;
39874;SDS011;25547;52.530;13.194;2023-03-04T09:13:00;6.07;;;0.20;;
39874;SDS011;25547;52.530;13.194;2023-03-04T09:15:26;5.78;;;0.35;;
39874;SDS011;25547;52.530;13.194;2023-03-04T09:17:57;4.38;;;0.85;;
39874;SDS011;25547;52.530;13.194;2023-03-04T09:20:22;4.85;;;0.35;;
39874;SDS011;25547;52.530;13.194;2023-03-04T09:22:48;1.92;;;0.13;;
39874;SDS011;25547;52.530;13.194;2023-03-04T09:25:14;4.63;;;0.20;;
39874;SDS011;25547;52.530;13.194;2023-03-04T09:27:39;3.00;;;0.52;;
39874;SDS011;25547;52.530;13.194;2023-03-04T09:30:10;4.28;;;0.22;;
39874;SDS011;25547;52.530;13.194;2023-03-04T09:32:39;4.28;;;0.63;;
39874;SDS011;25547;52.530;13.194;2023-03-04T09:35:05;10.07;;;0.30;;
39874;SDS011;25547;52.530;13.194;2023-03-04T09:37:32;2.20;;;0.30;;
39874;SDS011;25547;52.530;13.194;2023-03-04T09:39:58;3.35;;;0.20;;
39874;SDS011;25547;52.530;13.194;2023-03-04T09:42:24;3.30;;;0.25;;
39874;SDS011;25547;52.530;13.194;2023-03-04T09:44:54;12.55;;;1.23;;
39874;SDS011;25547;52.530;13.194;2023-03-04T09:47:22;6.55;;;0.20;;
39874;SDS011;25547;52.530;13.194;2023-03-04T09:49:53;4.55;;;0.30;;
39874;SDS011;25547;52.530;13.194;2023-03-04T10:00:37;19.70;;;2.75;;
39874;SDS011;25547;52.530;13.194;2023-03-04T10:03:13;4.57;;;0.25;;
39874;SDS011;25547;52.530;13.194;2023-03-04T10:22:14;11.38;;;0.68;;
39874;SDS011;25547;52.530;13.194;2023-03-04T10:24:53;8.25;;;0.32;;
39874;SDS011;25547;52.530;13.194;2023-03-04T10:27:21;9.77;;;0.20;;
39874;SDS011;25547;52.530;13.194;2023-03-04T10:29:48;6.30;;;1.13;;
39874;SDS011;25547;52.530;13.194;2023-03-04T10:32:18;7.55;;;1.00;;
39874;SDS011;25547;52.530;13.194;2023-03-04T10:34:44;5.50;;;0.20;;
39874;SDS011;25547;52.530;13.194;2023-03-04T10:37:10;14.88;;;0.88;;
39874;SDS011;25547;52.530;13.194;2023-03-04T10:39:39;9.20;;;0.70;;
39874;SDS011;25547;52.530;13.194;2023-03-04T10:44:40;15.55;;;0.52;;
39874;SDS011;25547;52.530;13.194;2023-03-04T10:47:15;17.55;;;1.52;;
39874;SDS011;25547;52.530;13.194;2023-03-04T10:49:50;9.57;;;0.40;;
39874;SDS011;25547;52.530;13.194;2023-03-04T10:52:28;8.93;;;0.60;;
39874;SDS011;25547;52.530;13.194;2023-03-04T10:55:02;15.15;;;1.17;;
39874;SDS011;25547;52.530;13.194;2023-03-04T11:02:49;17.88;;;1.05;;
39874;SDS011;25547;52.530;13.194;2023-03-04T11:05:24;15.63;;;2.42;;
39874;SDS011;25547;52.530;13.194;2023-03-04T11:10:20;12.05;;;0.22;;
39874;SDS011;25547;52.530;13.194;2023-03-04T11:15:23;7.47;;;1.17;;
39874;SDS011;25547;52.530;13.194;2023-03-04T11:18:08;13.10;;;1.33;;
39874;SDS011;25547;52.530;13.194;2023-03-04T11:20:40;9.32;;;0.85;;
39874;SDS011;25547;52.530;13.194;2023-03-04T11:23:15;11.02;;;1.00;;
39874;SDS011;25547;52.530;13.194;2023-03-04T11:25:48;12.50;;;0.53;;
39874;SDS011;25547;52.530;13.194;2023-03-04T11:28:21;10.43;;;0.30;;
39874;SDS011;25547;52.530;13.194;2023-03-04T11:30:59;8.43;;;0.93;;
39874;SDS011;25547;52.530;13.194;2023-03-04T11:38:56;10.82;;;0.40;;
39874;SDS011;25547;52.530;13.194;2023-03-04T11:41:29;14.27;;;0.85;;
39874;SDS011;25547;52.530;13.194;2023-03-04T11:44:00;18.90;;;0.60;;
39874;SDS011;25547;52.530;13.194;2023-03-04T12:02:45;11.13;;;0.70;;
39874;SDS011;25547;52.530;13.194;2023-03-04T12:05:40;8.57;;;0.80;;
39874;SDS011;25547;52.530;13.194;2023-03-04T12:11:01;14.55;;;0.63;;
39874;SDS011;25547;52.530;13.194;2023-03-04T12:13:44;6.88;;;0.50;;
39874;SDS011;25547;52.530;13.194;2023-03-04T12:21:54;14.65;;;0.88;;
39874;SDS011;25547;52.530;13.194;2023-03-04T12:38:56;13.63;;;0.32;;
39874;SDS011;25547;52.530;13.194;2023-03-04T12:41:42;9.82;;;0.32;;
39874;SDS011;25547;52.530;13.194;2023-03-04T12:44:20;5.03;;;0.28;;
39874;SDS011;25547;52.530;13.194;2023-03-04T12:47:32;10.20;;;0.22;;
39874;SDS011;25547;52.530;13.194;2023-03-04T12:54:48;8.45;;;0.60;;
39874;SDS011;25547;52.530;13.194;2023-03-04T12:57:23;7.70;;;1.10;;
39874;SDS011;25547;52.530;13.194;2023-03-04T13:10:32;8.35;;;0.40;;
39874;SDS011;25547;52.530;13.194;2023-03-04T13:13:00;12.05;;;0.60;;
39874;SDS011;25547;52.530;13.194;2023-03-04T13:15:29;14.50;;;0.28;;
39874;SDS011;25547;52.530;13.194;2023-03-04T13:17:56;12.88;;;0.30;;
39874;SDS011;25547;52.530;13.194;2023-03-04T13:25:48;11.68;;;0.75;;
39874;SDS011;25547;52.530;13.194;2023-03-04T13:28:33;9.15;;;0.63;;
39874;SDS011;25547;52.530;13.194;2023-03-04T13:33:46;11.65;;;0.63;;
39874;SDS011;25547;52.530;13.194;2023-03-04T13:39:25;13.05;;;1.48;;
39874;SDS011;25547;52.530;13.194;2023-03-04T13:41:49;11.60;;;0.20;;
39874;SDS011;25547;52.530;13.194;2023-03-04T13:47:29;12.10;;;0.82;;
39874;SDS011;25547;52.530;13.194;2023-03-04T13:52:53;9.43;;;0.60;;
39874;SDS011;25547;52.530;13.194;2023-03-04T13:57:55;8.05;;;0.65;;
39874;SDS011;25547;52.530;13.194;2023-03-04T14:00:23;10.30;;;0.63;;
39874;SDS011;25547;52.530;13.194;2023-03-04T14:02:49;9.40;;;1.27;;
39874;SDS011;25547;52.530;13.194;2023-03-04T14:05:17;11.50;;;0.30;;
39874;SDS011;25547;52.530;13.194;2023-03-04T14:07:43;10.52;;;0.57;;
39874;SDS011;25547;52.530;13.194;2023-03-04T14:12:45;8.88;;;0.30;;
39874;SDS011;25547;52.530;13.194;2023-03-04T14:17:38;7.82;;;0.57;;
39874;SDS011;25547;52.530;13.194;2023-03-04T14:22:54;6.63;;;0.75;;
39874;SDS011;25547;52.530;13.194;2023-03-04T14:25:25;10.63;;;0.75;;
39874;SDS011;25547;52.530;13.194;2023-03-04T14:28:04;16.98;;;0.30;;
39874;SDS011;25547;52.530;13.194;2023-03-04T14:30:44;11.52;;;0.80;;
39874;SDS011;25547;52.530;13.194;2023-03-04T14:33:17;11.70;;;1.75;;
39874;SDS011;25547;52.530;13.194;2023-03-04T14:35:46;17.95;;;1.63;;
39874;SDS011;25547;52.530;13.194;2023-03-04T14:46:14;10.10;;;0.30;;
39874;SDS011;25547;52.530;13.194;2023-03-04T14:48:47;5.15;;;0.15;;
39874;SDS011;25547;52.530;13.194;2023-03-04T14:56:54;8.05;;;1.23;;
39874;SDS011;25547;52.530;13.194;2023-03-04T14:59:27;11.13;;;0.30;;
39874;SDS011;25547;52.530;13.194;2023-03-04T15:02:17;14.07;;;0.90;;
39874;SDS011;25547;52.530;13.194;2023-03-04T15:04:51;8.23;;;0.65;;
39874;SDS011;25547;52.530;13.194;2023-03-04T15:07:18;14.00;;;0.47;;
39874;SDS011;25547;52.530;13.194;2023-03-04T15:09:55;13.05;;;1.15;;
39874;SDS011;25547;52.530;13.194;2023-03-04T15:12:29;18.40;;;1.88;;
39874;SDS011;25547;52.530;13.194;2023-03-04T15:15:00;14.07;;;0.20;;
39874;SDS011;25547;52.530;13.194;2023-03-04T15:25:17;16.75;;;2.03;;
39874;SDS011;25547;52.530;13.194;2023-03-04T15:27:43;11.80;;;0.80;;
39874;SDS011;25547;52.530;13.194;2023-03-04T15:30:19;10.40;;;0.45;;
39874;SDS011;25547;52.530;13.194;2023-03-04T15:32:54;12.48;;;1.73;;
39874;SDS011;25547;52.530;13.194;2023-03-04T15:35:20;17.00;;;1.67;;
39874;SDS011;25547;52.530;13.194;2023-03-04T15:37:48;10.77;;;0.45;;
39874;SDS011;25547;52.530;13.194;2023-03-04T15:40:23;13.10;;;0.70;;
39874;SDS011;25547;52.530;13.194;2023-03-04T15:42:54;19.83;;;1.38;;
39874;SDS011;25547;52.530;13.194;2023-03-04T15:45:22;15.57;;;2.03;;
39874;SDS011;25547;52.530;13.194;2023-03-04T15:47:53;21.02;;;2.17;;
39874;SDS011;25547;52.530;13.194;2023-03-04T15:50:21;14.18;;;0.85;;
39874;SDS011;25547;52.530;13.194;2023-03-04T15:52:53;8.65;;;0.57;;
39874;SDS011;25547;52.530;13.194;2023-03-04T15:55:23;7.97;;;0.25;;
39874;SDS011;25547;52.530;13.194;2023-03-04T15:57:51;10.13;;;0.95;;
39874;SDS011;25547;52.530;13.194;2023-03-04T16:00:19;8.48;;;0.93;;
39874;SDS011;25547;52.530;13.194;2023-03-04T16:02:45;10.80;;;1.15;;
39874;SDS011;25547;52.530;13.194;2023-03-04T16:05:14;12.57;;;0.43;;
39874;SDS011;25547;52.530;13.194;2023-03-04T16:07:48;5.03;;;0.40;;
39874;SDS011;25547;52.530;13.194;2023-03-04T16:10:25;12.38;;;0.50;;
39874;SDS011;25547;52.530;13.194;2023-03-04T16:12:59;7.65;;;1.00;;
39874;SDS011;25547;52.530;13.194;2023-03-04T16:15:27;9.98;;;0.60;;
39874;SDS011;25547;52.530;13.194;2023-03-04T16:17:53;3.95;;;0.32;;
39874;SDS011;25547;52.530;13.194;2023-03-04T16:20:24;22.73;;;3.80;;
39874;SDS011;25547;52.530;13.194;2023-03-04T16:22:55;9.40;;;0.80;;
39874;SDS011;25547;52.530;13.194;2023-03-04T16:25:25;8.60;;;0.60;;
39874;SDS011;25547;52.530;13.194;2023-03-04T16:27:52;10.30;;;0.70;;
39874;SDS011;25547;52.530;13.194;2023-03-04T16:30:26;10.48;;;0.60;;
39874;SDS011;25547;52.530;13.194;2023-03-04T16:32:54;11.55;;;0.43;;
39874;SDS011;25547;52.530;13.194;2023-03-04T16:35:20;6.70;;;0.43;;
39874;SDS011;25547;52.530;13.194;2023-03-04T16:37:51;8.50;;;1.23;;
39874;SDS011;25547;52.530;13.194;2023-03-04T16:40:24;12.48;;;0.40;;
39874;SDS011;25547;52.530;13.194;2023-03-04T16:42:54;10.63;;;0.40;;
39874;SDS011;25547;52.530;13.194;2023-03-04T16:45:24;8.43;;;1.58;;
39874;SDS011;25547;52.530;13.194;2023-03-04T16:47:54;9.57;;;0.60;;
39874;SDS011;25547;52.530;13.194;2023-03-04T16:50:21;13.70;;;0.45;;
39874;SDS011;25547;52.530;13.194;2023-03-04T16:52:53;12.40;;;0.40;;
39874;SDS011;25547;52.530;13.194;2023-03-04T16:55:23;11.55;;;0.50;;
39874;SDS011;25547;52.530;13.194;2023-03-04T16:57:51;11.50;;;0.20;;
39874;SDS011;25547;52.530;13.194;2023-03-04T17:00:18;9.75;;;0.50;;
39874;SDS011;25547;52.530;13.194;2023-03-04T17:02:47;15.18;;;1.42;;
39874;SDS011;25547;52.530;13.194;2023-03-04T17:05:20;11.00;;;0.85;;
39874;SDS011;25547;52.530;13.194;2023-03-04T17:07:47;11.38;;;0.40;;
39874;SDS011;25547;52.530;13.194;2023-03-04T17:10:13;12.32;;;0.60;;
39874;SDS011;25547;52.530;13.194;2023-03-04T17:12:42;3.45;;;0.38;;